<?xml version="1.0" encoding="UTF-8" standalone="no" ?>
<gpx xmlns="http://www.topografix.com/GPX/1/1" xmlns:xsi="http://www.w3.org/2001/XMLSchema-instance" xsi:schemaLocation="http://www.topografix.com/GPX/1/1 http://www.topografix.com/GPX/1/1/gpx.xsd" version="1.1" creator="VisuGPX - https://www.visugpx.com">
  <metadata>
    <name>2024 05 22 Parcours Total 2024</name>
  </metadata>
  <trk>
    <name><![CDATA[VTT14 B2]]></name>
    <extensions>
      <line xmlns="http://www.topografix.com/GPX/gpx_style/0/2">
        <color>fa00c4</color>
        <width>4</width>
      </line>
    </extensions>
    <trkseg>
      <trkpt lat="48.19859" lon="3.24559">
        <ele>103.1</ele>
      </trkpt>
      <trkpt lat="48.19876" lon="3.24538">
        <ele>102.3</ele>
        <time>2020-02-08T10:17:57Z</time>
      </trkpt>
      <trkpt lat="48.19883" lon="3.24536">
        <ele>102</ele>
        <time>2020-02-08T10:18:01Z</time>
      </trkpt>
      <trkpt lat="48.19894" lon="3.24534">
        <ele>101.8</ele>
        <time>2020-02-08T10:18:06Z</time>
      </trkpt>
      <trkpt lat="48.19904" lon="3.24542">
        <ele>101.5</ele>
        <time>2020-02-08T10:18:12Z</time>
      </trkpt>
      <trkpt lat="48.19909" lon="3.24546">
        <ele>101.3</ele>
        <time>2020-02-08T10:18:15Z</time>
      </trkpt>
      <trkpt lat="48.19918" lon="3.24551">
        <ele>101.3</ele>
        <time>2020-02-08T10:18:20Z</time>
      </trkpt>
      <trkpt lat="48.19923" lon="3.24553">
        <ele>101.6</ele>
        <time>2020-02-08T10:18:23Z</time>
      </trkpt>
      <trkpt lat="48.19935" lon="3.24561">
        <ele>102.1</ele>
        <time>2020-02-08T10:18:30Z</time>
      </trkpt>
      <trkpt lat="48.1994" lon="3.24558">
        <ele>102.5</ele>
        <time>2020-02-08T10:18:33Z</time>
      </trkpt>
      <trkpt lat="48.19952" lon="3.24565">
        <ele>102.9</ele>
        <time>2020-02-08T10:18:40Z</time>
      </trkpt>
      <trkpt lat="48.19956" lon="3.24565">
        <ele>103.2</ele>
        <time>2020-02-08T10:18:44Z</time>
      </trkpt>
      <trkpt lat="48.19964" lon="3.24561">
        <ele>104</ele>
        <time>2020-02-08T10:18:51Z</time>
      </trkpt>
      <trkpt lat="48.19965" lon="3.2456">
        <ele>104.2</ele>
        <time>2020-02-08T10:18:54Z</time>
      </trkpt>
      <trkpt lat="48.19972" lon="3.24559">
        <ele>104.7</ele>
        <time>2020-02-08T10:19:01Z</time>
      </trkpt>
      <trkpt lat="48.19978" lon="3.24555">
        <ele>105.9</ele>
        <time>2020-02-08T10:19:09Z</time>
      </trkpt>
      <trkpt lat="48.19984" lon="3.2455">
        <ele>107.3</ele>
        <time>2020-02-08T10:19:17Z</time>
      </trkpt>
      <trkpt lat="48.19988" lon="3.24546">
        <ele>108.3</ele>
        <time>2020-02-08T10:19:25Z</time>
      </trkpt>
      <trkpt lat="48.19996" lon="3.24542">
        <ele>109.9</ele>
        <time>2020-02-08T10:19:34Z</time>
      </trkpt>
      <trkpt lat="48.2" lon="3.24536">
        <ele>111.1</ele>
        <time>2020-02-08T10:19:43Z</time>
      </trkpt>
      <trkpt lat="48.2" lon="3.24533">
        <ele>111.4</ele>
        <time>2020-02-08T10:19:52Z</time>
      </trkpt>
      <trkpt lat="48.19999" lon="3.24533">
        <ele>111.3</ele>
        <time>2020-02-08T10:20:09Z</time>
      </trkpt>
      <trkpt lat="48.19998" lon="3.24531">
        <ele>111.4</ele>
        <time>2020-02-08T10:20:17Z</time>
      </trkpt>
      <trkpt lat="48.19998" lon="3.24527">
        <ele>111.8</ele>
        <time>2020-02-08T10:20:20Z</time>
      </trkpt>
      <trkpt lat="48.2" lon="3.24516">
        <ele>113.3</ele>
        <time>2020-02-08T10:20:29Z</time>
      </trkpt>
      <trkpt lat="48.19998" lon="3.24508">
        <ele>113.8</ele>
        <time>2020-02-08T10:20:36Z</time>
      </trkpt>
      <trkpt lat="48.19999" lon="3.245">
        <ele>114.9</ele>
        <time>2020-02-08T10:20:44Z</time>
      </trkpt>
      <trkpt lat="48.20002" lon="3.245">
        <ele>115.4</ele>
        <time>2020-02-08T10:20:49Z</time>
      </trkpt>
      <trkpt lat="48.20009" lon="3.24509">
        <ele>115.9</ele>
        <time>2020-02-08T10:20:58Z</time>
      </trkpt>
      <trkpt lat="48.20014" lon="3.24507">
        <ele>117.1</ele>
        <time>2020-02-08T10:21:06Z</time>
      </trkpt>
      <trkpt lat="48.20021" lon="3.24508">
        <ele>118.5</ele>
        <time>2020-02-08T10:21:13Z</time>
      </trkpt>
      <trkpt lat="48.20023" lon="3.24507">
        <ele>119</ele>
        <time>2020-02-08T10:21:20Z</time>
      </trkpt>
      <trkpt lat="48.20026" lon="3.24507">
        <ele>119.6</ele>
        <time>2020-02-08T10:21:27Z</time>
      </trkpt>
      <trkpt lat="48.20028" lon="3.24509">
        <ele>119.7</ele>
        <time>2020-02-08T10:21:33Z</time>
      </trkpt>
      <trkpt lat="48.20033" lon="3.2451">
        <ele>120.5</ele>
        <time>2020-02-08T10:21:40Z</time>
      </trkpt>
      <trkpt lat="48.20035" lon="3.2451">
        <ele>120.9</ele>
        <time>2020-02-08T10:21:47Z</time>
      </trkpt>
      <trkpt lat="48.20037" lon="3.24506">
        <ele>121.8</ele>
        <time>2020-02-08T10:21:51Z</time>
      </trkpt>
      <trkpt lat="48.20045" lon="3.24495">
        <ele>124.8</ele>
        <time>2020-02-08T10:22:00Z</time>
      </trkpt>
      <trkpt lat="48.20048" lon="3.24492">
        <ele>125.7</ele>
        <time>2020-02-08T10:22:03Z</time>
      </trkpt>
      <trkpt lat="48.20049" lon="3.24484">
        <ele>127</ele>
        <time>2020-02-08T10:22:10Z</time>
      </trkpt>
      <trkpt lat="48.20053" lon="3.24475">
        <ele>129.1</ele>
        <time>2020-02-08T10:22:18Z</time>
      </trkpt>
      <trkpt lat="48.20059" lon="3.24468">
        <ele>131</ele>
        <time>2020-02-08T10:22:25Z</time>
      </trkpt>
      <trkpt lat="48.20064" lon="3.24457">
        <ele>132.9</ele>
        <time>2020-02-08T10:22:33Z</time>
      </trkpt>
      <trkpt lat="48.20066" lon="3.24445">
        <ele>134.4</ele>
        <time>2020-02-08T10:22:41Z</time>
      </trkpt>
      <trkpt lat="48.2007" lon="3.24439">
        <ele>135.7</ele>
        <time>2020-02-08T10:22:48Z</time>
      </trkpt>
      <trkpt lat="48.20072" lon="3.24438">
        <ele>136.1</ele>
        <time>2020-02-08T10:22:50Z</time>
      </trkpt>
      <trkpt lat="48.20082" lon="3.24433">
        <ele>138</ele>
        <time>2020-02-08T10:22:59Z</time>
      </trkpt>
      <trkpt lat="48.20087" lon="3.24428">
        <ele>139.2</ele>
        <time>2020-02-08T10:23:06Z</time>
      </trkpt>
      <trkpt lat="48.20093" lon="3.2442">
        <ele>140.7</ele>
        <time>2020-02-08T10:23:14Z</time>
      </trkpt>
      <trkpt lat="48.20094" lon="3.24415">
        <ele>141.3</ele>
        <time>2020-02-08T10:23:17Z</time>
      </trkpt>
      <trkpt lat="48.20101" lon="3.24408">
        <ele>142.5</ele>
        <time>2020-02-08T10:23:25Z</time>
      </trkpt>
      <trkpt lat="48.20104" lon="3.24408">
        <ele>142.9</ele>
        <time>2020-02-08T10:23:28Z</time>
      </trkpt>
      <trkpt lat="48.2011" lon="3.24403">
        <ele>143.9</ele>
        <time>2020-02-08T10:23:36Z</time>
      </trkpt>
      <trkpt lat="48.20115" lon="3.24406">
        <ele>144.2</ele>
        <time>2020-02-08T10:23:43Z</time>
      </trkpt>
      <trkpt lat="48.20118" lon="3.24409">
        <ele>144.3</ele>
        <time>2020-02-08T10:23:46Z</time>
      </trkpt>
      <trkpt lat="48.20123" lon="3.24406">
        <ele>145.1</ele>
        <time>2020-02-08T10:23:53Z</time>
      </trkpt>
      <trkpt lat="48.20127" lon="3.24395">
        <ele>146.3</ele>
        <time>2020-02-08T10:24:01Z</time>
      </trkpt>
      <trkpt lat="48.20128" lon="3.24391">
        <ele>146.7</ele>
        <time>2020-02-08T10:24:09Z</time>
      </trkpt>
      <trkpt lat="48.20128" lon="3.2439">
        <ele>146.7</ele>
        <time>2020-02-08T10:24:10Z</time>
      </trkpt>
      <trkpt lat="48.20127" lon="3.24375">
        <ele>147.7</ele>
        <time>2020-02-08T10:24:18Z</time>
      </trkpt>
      <trkpt lat="48.20125" lon="3.24369">
        <ele>147.9</ele>
        <time>2020-02-08T10:24:24Z</time>
      </trkpt>
      <trkpt lat="48.20124" lon="3.24349">
        <ele>149.1</ele>
        <time>2020-02-08T10:24:32Z</time>
      </trkpt>
      <trkpt lat="48.20123" lon="3.24348">
        <ele>149</ele>
        <time>2020-02-08T10:24:33Z</time>
      </trkpt>
      <trkpt lat="48.20121" lon="3.24329">
        <ele>149.8</ele>
        <time>2020-02-08T10:24:41Z</time>
      </trkpt>
      <trkpt lat="48.20121" lon="3.24324">
        <ele>149.8</ele>
        <time>2020-02-08T10:24:43Z</time>
      </trkpt>
      <trkpt lat="48.20126" lon="3.24316">
        <ele>150.4</ele>
        <time>2020-02-08T10:24:51Z</time>
      </trkpt>
      <trkpt lat="48.20126" lon="3.24315">
        <ele>150.4</ele>
        <time>2020-02-08T10:24:56Z</time>
      </trkpt>
      <trkpt lat="48.20132" lon="3.24317">
        <ele>150.9</ele>
        <time>2020-02-08T10:25:01Z</time>
      </trkpt>
      <trkpt lat="48.2014" lon="3.24308">
        <ele>152</ele>
        <time>2020-02-08T10:25:09Z</time>
      </trkpt>
      <trkpt lat="48.20148" lon="3.24299">
        <ele>153.1</ele>
        <time>2020-02-08T10:25:17Z</time>
      </trkpt>
      <trkpt lat="48.20151" lon="3.24297">
        <ele>153.5</ele>
        <time>2020-02-08T10:25:21Z</time>
      </trkpt>
      <trkpt lat="48.20161" lon="3.24301">
        <ele>154.4</ele>
        <time>2020-02-08T10:25:29Z</time>
      </trkpt>
      <trkpt lat="48.20164" lon="3.24304">
        <ele>154.7</ele>
        <time>2020-02-08T10:25:31Z</time>
      </trkpt>
      <trkpt lat="48.20175" lon="3.24311">
        <ele>155.4</ele>
        <time>2020-02-08T10:25:38Z</time>
      </trkpt>
      <trkpt lat="48.20184" lon="3.24315">
        <ele>155.9</ele>
        <time>2020-02-08T10:25:44Z</time>
      </trkpt>
      <trkpt lat="48.20193" lon="3.24324">
        <ele>156.2</ele>
        <time>2020-02-08T10:25:50Z</time>
      </trkpt>
      <trkpt lat="48.20201" lon="3.2433">
        <ele>156.4</ele>
        <time>2020-02-08T10:25:56Z</time>
      </trkpt>
      <trkpt lat="48.20207" lon="3.24334">
        <ele>156.4</ele>
        <time>2020-02-08T10:26:00Z</time>
      </trkpt>
      <trkpt lat="48.20218" lon="3.24339">
        <ele>156.6</ele>
        <time>2020-02-08T10:26:08Z</time>
      </trkpt>
      <trkpt lat="48.20218" lon="3.2434">
        <ele>156.6</ele>
        <time>2020-02-08T10:26:09Z</time>
      </trkpt>
      <trkpt lat="48.2022" lon="3.24341">
        <ele>156.6</ele>
        <time>2020-02-08T10:26:11Z</time>
      </trkpt>
      <trkpt lat="48.2022" lon="3.24343">
        <ele>156.6</ele>
        <time>2020-02-08T10:26:12Z</time>
      </trkpt>
      <trkpt lat="48.20217" lon="3.24341">
        <ele>156.5</ele>
        <time>2020-02-08T10:26:16Z</time>
      </trkpt>
      <trkpt lat="48.20233" lon="3.24344">
        <ele>157.5</ele>
        <time>2020-02-08T10:26:21Z</time>
      </trkpt>
      <trkpt lat="48.20243" lon="3.24345">
        <ele>158.4</ele>
        <time>2020-02-08T10:26:26Z</time>
      </trkpt>
      <trkpt lat="48.20262" lon="3.24351">
        <ele>159.4</ele>
        <time>2020-02-08T10:26:34Z</time>
      </trkpt>
      <trkpt lat="48.2028" lon="3.24359">
        <ele>160.1</ele>
        <time>2020-02-08T10:26:41Z</time>
      </trkpt>
      <trkpt lat="48.20296" lon="3.24371">
        <ele>160.3</ele>
        <time>2020-02-08T10:26:48Z</time>
      </trkpt>
      <trkpt lat="48.20301" lon="3.24373">
        <ele>160.4</ele>
        <time>2020-02-08T10:26:50Z</time>
      </trkpt>
      <trkpt lat="48.20313" lon="3.24395">
        <ele>160</ele>
        <time>2020-02-08T10:26:58Z</time>
      </trkpt>
      <trkpt lat="48.20318" lon="3.24413">
        <ele>159.6</ele>
        <time>2020-02-08T10:27:04Z</time>
      </trkpt>
      <trkpt lat="48.2033" lon="3.24435">
        <ele>159.2</ele>
        <time>2020-02-08T10:27:10Z</time>
      </trkpt>
      <trkpt lat="48.20337" lon="3.24452">
        <ele>158.9</ele>
        <time>2020-02-08T10:27:15Z</time>
      </trkpt>
      <trkpt lat="48.20351" lon="3.24446">
        <ele>159.6</ele>
        <time>2020-02-08T10:28:43Z</time>
      </trkpt>
      <trkpt lat="48.20359" lon="3.24437">
        <ele>160.2</ele>
        <time>2020-02-08T10:28:50Z</time>
      </trkpt>
      <trkpt lat="48.20373" lon="3.24426">
        <ele>160.7</ele>
        <time>2020-02-08T10:28:58Z</time>
      </trkpt>
      <trkpt lat="48.20387" lon="3.24426">
        <ele>160.7</ele>
        <time>2020-02-08T10:29:04Z</time>
      </trkpt>
      <trkpt lat="48.20402" lon="3.24436">
        <ele>160.2</ele>
        <time>2020-02-08T10:29:10Z</time>
      </trkpt>
      <trkpt lat="48.20413" lon="3.24422">
        <ele>160.1</ele>
        <time>2020-02-08T10:29:16Z</time>
      </trkpt>
      <trkpt lat="48.20416" lon="3.24415">
        <ele>160</ele>
        <time>2020-02-08T10:29:18Z</time>
      </trkpt>
      <trkpt lat="48.20424" lon="3.24385">
        <ele>159.2</ele>
        <time>2020-02-08T10:29:26Z</time>
      </trkpt>
      <trkpt lat="48.20428" lon="3.24374">
        <ele>158.8</ele>
        <time>2020-02-08T10:29:31Z</time>
      </trkpt>
      <trkpt lat="48.20432" lon="3.24359">
        <ele>158.2</ele>
        <time>2020-02-08T10:29:37Z</time>
      </trkpt>
      <trkpt lat="48.2044" lon="3.24335">
        <ele>155.8</ele>
        <time>2020-02-08T10:29:43Z</time>
      </trkpt>
      <trkpt lat="48.2045" lon="3.24308">
        <ele>153.5</ele>
        <time>2020-02-08T10:29:48Z</time>
      </trkpt>
      <trkpt lat="48.20457" lon="3.24285">
        <ele>151.6</ele>
        <time>2020-02-08T10:29:52Z</time>
      </trkpt>
      <trkpt lat="48.20463" lon="3.24269">
        <ele>149.7</ele>
        <time>2020-02-08T10:29:55Z</time>
      </trkpt>
      <trkpt lat="48.2048" lon="3.24241">
        <ele>145.5</ele>
        <time>2020-02-08T10:30:00Z</time>
      </trkpt>
      <trkpt lat="48.20485" lon="3.24234">
        <ele>144.5</ele>
        <time>2020-02-08T10:30:02Z</time>
      </trkpt>
      <trkpt lat="48.20488" lon="3.24231">
        <ele>143.9</ele>
        <time>2020-02-08T10:30:10Z</time>
      </trkpt>
      <trkpt lat="48.205" lon="3.24215">
        <ele>141.5</ele>
        <time>2020-02-08T10:30:15Z</time>
      </trkpt>
      <trkpt lat="48.20503" lon="3.24211">
        <ele>140.8</ele>
        <time>2020-02-08T10:30:16Z</time>
      </trkpt>
      <trkpt lat="48.20512" lon="3.24196">
        <ele>138.4</ele>
        <time>2020-02-08T10:30:19Z</time>
      </trkpt>
      <trkpt lat="48.20525" lon="3.24181">
        <ele>135.4</ele>
        <time>2020-02-08T10:30:24Z</time>
      </trkpt>
      <trkpt lat="48.2053" lon="3.2417">
        <ele>134</ele>
        <time>2020-02-08T10:30:27Z</time>
      </trkpt>
      <trkpt lat="48.20543" lon="3.24154">
        <ele>131</ele>
        <time>2020-02-08T10:30:31Z</time>
      </trkpt>
      <trkpt lat="48.20557" lon="3.24141">
        <ele>128</ele>
        <time>2020-02-08T10:30:35Z</time>
      </trkpt>
      <trkpt lat="48.20565" lon="3.24129">
        <ele>125.7</ele>
        <time>2020-02-08T10:30:38Z</time>
      </trkpt>
      <trkpt lat="48.20575" lon="3.24118">
        <ele>123.5</ele>
        <time>2020-02-08T10:30:42Z</time>
      </trkpt>
      <trkpt lat="48.2058" lon="3.24104">
        <ele>122.1</ele>
        <time>2020-02-08T10:30:47Z</time>
      </trkpt>
      <trkpt lat="48.20579" lon="3.24092">
        <ele>121.7</ele>
        <time>2020-02-08T10:30:54Z</time>
      </trkpt>
      <trkpt lat="48.2058" lon="3.24081">
        <ele>121.4</ele>
        <time>2020-02-08T10:31:00Z</time>
      </trkpt>
      <trkpt lat="48.20577" lon="3.24074">
        <ele>122</ele>
        <time>2020-02-08T10:31:03Z</time>
      </trkpt>
      <trkpt lat="48.20576" lon="3.24072">
        <ele>122.1</ele>
        <time>2020-02-08T10:31:04Z</time>
      </trkpt>
      <trkpt lat="48.20563" lon="3.24061">
        <ele>122.9</ele>
        <time>2020-02-08T10:31:10Z</time>
      </trkpt>
      <trkpt lat="48.20549" lon="3.24045">
        <ele>124.1</ele>
        <time>2020-02-08T10:31:17Z</time>
      </trkpt>
      <trkpt lat="48.20545" lon="3.24038">
        <ele>124.5</ele>
        <time>2020-02-08T10:31:20Z</time>
      </trkpt>
      <trkpt lat="48.20538" lon="3.24021">
        <ele>125.2</ele>
        <time>2020-02-08T10:31:26Z</time>
      </trkpt>
      <trkpt lat="48.2053" lon="3.24001">
        <ele>125.2</ele>
        <time>2020-02-08T10:31:32Z</time>
      </trkpt>
      <trkpt lat="48.20519" lon="3.23973">
        <ele>126.3</ele>
        <time>2020-02-08T10:31:39Z</time>
      </trkpt>
      <trkpt lat="48.20512" lon="3.23935">
        <ele>126.6</ele>
        <time>2020-02-08T10:31:48Z</time>
      </trkpt>
      <trkpt lat="48.20507" lon="3.23902">
        <ele>127.3</ele>
        <time>2020-02-08T10:31:55Z</time>
      </trkpt>
      <trkpt lat="48.20505" lon="3.23871">
        <ele>127.5</ele>
        <time>2020-02-08T10:32:01Z</time>
      </trkpt>
      <trkpt lat="48.20502" lon="3.23826">
        <ele>126.1</ele>
        <time>2020-02-08T10:32:10Z</time>
      </trkpt>
      <trkpt lat="48.20498" lon="3.23786">
        <ele>125.2</ele>
        <time>2020-02-08T10:32:19Z</time>
      </trkpt>
      <trkpt lat="48.20492" lon="3.23779">
        <ele>125.9</ele>
        <time>2020-02-08T10:32:22Z</time>
      </trkpt>
      <trkpt lat="48.20476" lon="3.23776">
        <ele>127.6</ele>
        <time>2020-02-08T10:32:31Z</time>
      </trkpt>
      <trkpt lat="48.20462" lon="3.23775">
        <ele>129.5</ele>
        <time>2020-02-08T10:32:40Z</time>
      </trkpt>
      <trkpt lat="48.20452" lon="3.23772">
        <ele>131.1</ele>
        <time>2020-02-08T10:32:48Z</time>
      </trkpt>
      <trkpt lat="48.20438" lon="3.2377">
        <ele>133.4</ele>
        <time>2020-02-08T10:32:59Z</time>
      </trkpt>
      <trkpt lat="48.2043" lon="3.23768">
        <ele>134.8</ele>
        <time>2020-02-08T10:33:05Z</time>
      </trkpt>
      <trkpt lat="48.20429" lon="3.23767">
        <ele>135</ele>
        <time>2020-02-08T10:33:06Z</time>
      </trkpt>
      <trkpt lat="48.20428" lon="3.23767">
        <ele>135.1</ele>
        <time>2020-02-08T10:33:07Z</time>
      </trkpt>
      <trkpt lat="48.20418" lon="3.23766">
        <ele>136.8</ele>
        <time>2020-02-08T10:33:16Z</time>
      </trkpt>
      <trkpt lat="48.20406" lon="3.23765">
        <ele>138.4</ele>
        <time>2020-02-08T10:33:26Z</time>
      </trkpt>
      <trkpt lat="48.20404" lon="3.23764">
        <ele>138.6</ele>
        <time>2020-02-08T10:33:28Z</time>
      </trkpt>
      <trkpt lat="48.20397" lon="3.23763">
        <ele>139.5</ele>
        <time>2020-02-08T10:33:34Z</time>
      </trkpt>
      <trkpt lat="48.20394" lon="3.23762">
        <ele>139.8</ele>
        <time>2020-02-08T10:33:36Z</time>
      </trkpt>
      <trkpt lat="48.20393" lon="3.23762">
        <ele>139.9</ele>
        <time>2020-02-08T10:33:37Z</time>
      </trkpt>
      <trkpt lat="48.20392" lon="3.23762">
        <ele>140</ele>
        <time>2020-02-08T10:33:38Z</time>
      </trkpt>
      <trkpt lat="48.20388" lon="3.23762">
        <ele>140.5</ele>
        <time>2020-02-08T10:33:41Z</time>
      </trkpt>
      <trkpt lat="48.20387" lon="3.23761">
        <ele>140.6</ele>
        <time>2020-02-08T10:33:42Z</time>
      </trkpt>
      <trkpt lat="48.20386" lon="3.23761">
        <ele>140.8</ele>
        <time>2020-02-08T10:33:43Z</time>
      </trkpt>
      <trkpt lat="48.20385" lon="3.23761">
        <ele>140.9</ele>
        <time>2020-02-08T10:33:44Z</time>
      </trkpt>
      <trkpt lat="48.20383" lon="3.23761">
        <ele>141.2</ele>
        <time>2020-02-08T10:33:45Z</time>
      </trkpt>
      <trkpt lat="48.20372" lon="3.23759">
        <ele>142.6</ele>
        <time>2020-02-08T10:33:54Z</time>
      </trkpt>
      <trkpt lat="48.20358" lon="3.23756">
        <ele>144.4</ele>
        <time>2020-02-08T10:34:05Z</time>
      </trkpt>
      <trkpt lat="48.2035" lon="3.23755">
        <ele>145.3</ele>
        <time>2020-02-08T10:34:12Z</time>
      </trkpt>
      <trkpt lat="48.20339" lon="3.23753">
        <ele>146.5</ele>
        <time>2020-02-08T10:34:20Z</time>
      </trkpt>
      <trkpt lat="48.20329" lon="3.23753">
        <ele>147.6</ele>
        <time>2020-02-08T10:34:27Z</time>
      </trkpt>
      <trkpt lat="48.20323" lon="3.23752">
        <ele>148.2</ele>
        <time>2020-02-08T10:34:32Z</time>
      </trkpt>
      <trkpt lat="48.20312" lon="3.23752">
        <ele>149.4</ele>
        <time>2020-02-08T10:34:40Z</time>
      </trkpt>
      <trkpt lat="48.203" lon="3.2375">
        <ele>150.4</ele>
        <time>2020-02-08T10:34:47Z</time>
      </trkpt>
      <trkpt lat="48.20293" lon="3.23749">
        <ele>150.9</ele>
        <time>2020-02-08T10:34:51Z</time>
      </trkpt>
      <trkpt lat="48.20291" lon="3.23749">
        <ele>151</ele>
        <time>2020-02-08T10:34:52Z</time>
      </trkpt>
      <trkpt lat="48.20289" lon="3.23749">
        <ele>151.2</ele>
        <time>2020-02-08T10:34:53Z</time>
      </trkpt>
      <trkpt lat="48.20288" lon="3.23749">
        <ele>151.2</ele>
        <time>2020-02-08T10:34:54Z</time>
      </trkpt>
      <trkpt lat="48.20286" lon="3.23748">
        <ele>151.3</ele>
        <time>2020-02-08T10:34:55Z</time>
      </trkpt>
      <trkpt lat="48.20264" lon="3.23746">
        <ele>152.8</ele>
        <time>2020-02-08T10:35:07Z</time>
      </trkpt>
      <trkpt lat="48.20246" lon="3.23743">
        <ele>154</ele>
        <time>2020-02-08T10:35:17Z</time>
      </trkpt>
      <trkpt lat="48.20233" lon="3.23742">
        <ele>154.9</ele>
        <time>2020-02-08T10:35:24Z</time>
      </trkpt>
      <trkpt lat="48.20232" lon="3.23742">
        <ele>155</ele>
        <time>2020-02-08T10:35:25Z</time>
      </trkpt>
      <trkpt lat="48.2023" lon="3.23742">
        <ele>155.2</ele>
        <time>2020-02-08T10:35:26Z</time>
      </trkpt>
      <trkpt lat="48.20228" lon="3.23742">
        <ele>155.3</ele>
        <time>2020-02-08T10:35:27Z</time>
      </trkpt>
      <trkpt lat="48.20226" lon="3.23742">
        <ele>155.4</ele>
        <time>2020-02-08T10:35:28Z</time>
      </trkpt>
      <trkpt lat="48.20224" lon="3.23742">
        <ele>155.6</ele>
        <time>2020-02-08T10:35:29Z</time>
      </trkpt>
      <trkpt lat="48.20222" lon="3.23742">
        <ele>155.7</ele>
        <time>2020-02-08T10:35:30Z</time>
      </trkpt>
      <trkpt lat="48.20208" lon="3.2374">
        <ele>156.7</ele>
        <time>2020-02-08T10:35:38Z</time>
      </trkpt>
      <trkpt lat="48.20203" lon="3.23739">
        <ele>157</ele>
        <time>2020-02-08T10:35:41Z</time>
      </trkpt>
      <trkpt lat="48.20201" lon="3.23739">
        <ele>157.1</ele>
        <time>2020-02-08T10:35:42Z</time>
      </trkpt>
      <trkpt lat="48.202" lon="3.23739">
        <ele>157.2</ele>
        <time>2020-02-08T10:35:43Z</time>
      </trkpt>
      <trkpt lat="48.20198" lon="3.23739">
        <ele>157.3</ele>
        <time>2020-02-08T10:35:44Z</time>
      </trkpt>
      <trkpt lat="48.20196" lon="3.23739">
        <ele>157.5</ele>
        <time>2020-02-08T10:35:45Z</time>
      </trkpt>
      <trkpt lat="48.20194" lon="3.23738">
        <ele>157.6</ele>
        <time>2020-02-08T10:35:46Z</time>
      </trkpt>
      <trkpt lat="48.20179" lon="3.23736">
        <ele>158.3</ele>
        <time>2020-02-08T10:35:54Z</time>
      </trkpt>
      <trkpt lat="48.20157" lon="3.23733">
        <ele>159.3</ele>
        <time>2020-02-08T10:36:03Z</time>
      </trkpt>
      <trkpt lat="48.20135" lon="3.2373">
        <ele>160.1</ele>
        <time>2020-02-08T10:36:12Z</time>
      </trkpt>
      <trkpt lat="48.20112" lon="3.23726">
        <ele>161</ele>
        <time>2020-02-08T10:36:21Z</time>
      </trkpt>
      <trkpt lat="48.20092" lon="3.23723">
        <ele>161</ele>
        <time>2020-02-08T10:36:29Z</time>
      </trkpt>
      <trkpt lat="48.2007" lon="3.23719">
        <ele>161</ele>
        <time>2020-02-08T10:36:38Z</time>
      </trkpt>
      <trkpt lat="48.20062" lon="3.23718">
        <ele>161</ele>
        <time>2020-02-08T10:36:42Z</time>
      </trkpt>
      <trkpt lat="48.20055" lon="3.23721">
        <ele>161</ele>
        <time>2020-02-08T10:36:48Z</time>
      </trkpt>
      <trkpt lat="48.20055" lon="3.23723">
        <ele>161</ele>
        <time>2020-02-08T10:36:59Z</time>
      </trkpt>
      <trkpt lat="48.20054" lon="3.23721">
        <ele>160.9</ele>
        <time>2020-02-08T10:37:09Z</time>
      </trkpt>
      <trkpt lat="48.20053" lon="3.23717">
        <ele>160.9</ele>
        <time>2020-02-08T10:37:26Z</time>
      </trkpt>
      <trkpt lat="48.20056" lon="3.23719">
        <ele>161</ele>
        <time>2020-02-08T10:37:47Z</time>
      </trkpt>
      <trkpt lat="48.2006" lon="3.2372">
        <ele>161</ele>
        <time>2020-02-08T10:38:01Z</time>
      </trkpt>
      <trkpt lat="48.20058" lon="3.23716">
        <ele>161</ele>
        <time>2020-02-08T10:38:08Z</time>
      </trkpt>
      <trkpt lat="48.20054" lon="3.23711">
        <ele>160.9</ele>
        <time>2020-02-08T10:38:13Z</time>
      </trkpt>
      <trkpt lat="48.20045" lon="3.23714">
        <ele>160.6</ele>
        <time>2020-02-08T10:38:17Z</time>
      </trkpt>
      <trkpt lat="48.20034" lon="3.23723">
        <ele>160.2</ele>
        <time>2020-02-08T10:38:25Z</time>
      </trkpt>
      <trkpt lat="48.20024" lon="3.23735">
        <ele>159.1</ele>
        <time>2020-02-08T10:38:31Z</time>
      </trkpt>
      <trkpt lat="48.20013" lon="3.23743">
        <ele>157.7</ele>
        <time>2020-02-08T10:38:36Z</time>
      </trkpt>
      <trkpt lat="48.19995" lon="3.23759">
        <ele>155</ele>
        <time>2020-02-08T10:38:44Z</time>
      </trkpt>
      <trkpt lat="48.19988" lon="3.23766">
        <ele>153.7</ele>
        <time>2020-02-08T10:38:47Z</time>
      </trkpt>
      <trkpt lat="48.19973" lon="3.23775">
        <ele>151.2</ele>
        <time>2020-02-08T10:38:54Z</time>
      </trkpt>
      <trkpt lat="48.19957" lon="3.23775">
        <ele>148.9</ele>
        <time>2020-02-08T10:39:00Z</time>
      </trkpt>
      <trkpt lat="48.19953" lon="3.23775">
        <ele>148.3</ele>
        <time>2020-02-08T10:39:06Z</time>
      </trkpt>
      <trkpt lat="48.19953" lon="3.23775">
        <ele>148.3</ele>
        <time>2020-02-08T10:39:07Z</time>
      </trkpt>
      <trkpt lat="48.19952" lon="3.23766">
        <ele>148.5</ele>
        <time>2020-02-08T10:39:12Z</time>
      </trkpt>
      <trkpt lat="48.19953" lon="3.23748">
        <ele>149.3</ele>
        <time>2020-02-08T10:39:19Z</time>
      </trkpt>
      <trkpt lat="48.1995" lon="3.23738">
        <ele>149.2</ele>
        <time>2020-02-08T10:39:26Z</time>
      </trkpt>
      <trkpt lat="48.1995" lon="3.23728">
        <ele>149.6</ele>
        <time>2020-02-08T10:39:31Z</time>
      </trkpt>
      <trkpt lat="48.19949" lon="3.23713">
        <ele>150.3</ele>
        <time>2020-02-08T10:39:38Z</time>
      </trkpt>
      <trkpt lat="48.19948" lon="3.23708">
        <ele>150.5</ele>
        <time>2020-02-08T10:39:41Z</time>
      </trkpt>
      <trkpt lat="48.19948" lon="3.23692">
        <ele>151.7</ele>
        <time>2020-02-08T10:39:48Z</time>
      </trkpt>
      <trkpt lat="48.19948" lon="3.23688">
        <ele>152</ele>
        <time>2020-02-08T10:39:50Z</time>
      </trkpt>
      <trkpt lat="48.19946" lon="3.23675">
        <ele>152.6</ele>
        <time>2020-02-08T10:39:57Z</time>
      </trkpt>
      <trkpt lat="48.19944" lon="3.23663">
        <ele>153</ele>
        <time>2020-02-08T10:40:04Z</time>
      </trkpt>
      <trkpt lat="48.19944" lon="3.23656">
        <ele>153.3</ele>
        <time>2020-02-08T10:40:08Z</time>
      </trkpt>
      <trkpt lat="48.19942" lon="3.23638">
        <ele>153.5</ele>
        <time>2020-02-08T10:40:14Z</time>
      </trkpt>
      <trkpt lat="48.19936" lon="3.23616">
        <ele>153</ele>
        <time>2020-02-08T10:40:21Z</time>
      </trkpt>
      <trkpt lat="48.19932" lon="3.23594">
        <ele>152.9</ele>
        <time>2020-02-08T10:40:27Z</time>
      </trkpt>
      <trkpt lat="48.19931" lon="3.23581">
        <ele>153.2</ele>
        <time>2020-02-08T10:40:31Z</time>
      </trkpt>
      <trkpt lat="48.19926" lon="3.23558">
        <ele>153.5</ele>
        <time>2020-02-08T10:40:38Z</time>
      </trkpt>
      <trkpt lat="48.19921" lon="3.23535">
        <ele>153.6</ele>
        <time>2020-02-08T10:40:44Z</time>
      </trkpt>
      <trkpt lat="48.19919" lon="3.23528">
        <ele>153.5</ele>
        <time>2020-02-08T10:40:46Z</time>
      </trkpt>
      <trkpt lat="48.19914" lon="3.23513">
        <ele>153.5</ele>
        <time>2020-02-08T10:40:52Z</time>
      </trkpt>
      <trkpt lat="48.19904" lon="3.23488">
        <ele>153.1</ele>
        <time>2020-02-08T10:40:59Z</time>
      </trkpt>
      <trkpt lat="48.19903" lon="3.23484">
        <ele>153.2</ele>
        <time>2020-02-08T10:41:00Z</time>
      </trkpt>
      <trkpt lat="48.19897" lon="3.23469">
        <ele>153</ele>
        <time>2020-02-08T10:41:05Z</time>
      </trkpt>
      <trkpt lat="48.19892" lon="3.23449">
        <ele>153.3</ele>
        <time>2020-02-08T10:41:10Z</time>
      </trkpt>
      <trkpt lat="48.19882" lon="3.2342">
        <ele>153</ele>
        <time>2020-02-08T10:41:15Z</time>
      </trkpt>
      <trkpt lat="48.19872" lon="3.23391">
        <ele>153.2</ele>
        <time>2020-02-08T10:41:21Z</time>
      </trkpt>
      <trkpt lat="48.19871" lon="3.23388">
        <ele>153.2</ele>
        <time>2020-02-08T10:41:22Z</time>
      </trkpt>
      <trkpt lat="48.19861" lon="3.23363">
        <ele>152.8</ele>
        <time>2020-02-08T10:41:29Z</time>
      </trkpt>
      <trkpt lat="48.19857" lon="3.23344">
        <ele>152.7</ele>
        <time>2020-02-08T10:41:34Z</time>
      </trkpt>
      <trkpt lat="48.19847" lon="3.23327">
        <ele>151.4</ele>
        <time>2020-02-08T10:41:40Z</time>
      </trkpt>
      <trkpt lat="48.19844" lon="3.23321">
        <ele>151.2</ele>
        <time>2020-02-08T10:41:42Z</time>
      </trkpt>
      <trkpt lat="48.19841" lon="3.23317">
        <ele>150.8</ele>
        <time>2020-02-08T10:41:43Z</time>
      </trkpt>
      <trkpt lat="48.19827" lon="3.23294">
        <ele>148.9</ele>
        <time>2020-02-08T10:41:49Z</time>
      </trkpt>
      <trkpt lat="48.19821" lon="3.23283">
        <ele>148.1</ele>
        <time>2020-02-08T10:41:55Z</time>
      </trkpt>
      <trkpt lat="48.19821" lon="3.23281">
        <ele>148.2</ele>
        <time>2020-02-08T10:41:56Z</time>
      </trkpt>
      <trkpt lat="48.19809" lon="3.23263">
        <ele>147.3</ele>
        <time>2020-02-08T10:42:04Z</time>
      </trkpt>
      <trkpt lat="48.19807" lon="3.23259">
        <ele>147.3</ele>
        <time>2020-02-08T10:42:08Z</time>
      </trkpt>
      <trkpt lat="48.19801" lon="3.23248">
        <ele>146.9</ele>
        <time>2020-02-08T10:42:18Z</time>
      </trkpt>
      <trkpt lat="48.19801" lon="3.23246">
        <ele>147</ele>
        <time>2020-02-08T10:42:19Z</time>
      </trkpt>
      <trkpt lat="48.19799" lon="3.23241">
        <ele>146.7</ele>
        <time>2020-02-08T10:42:22Z</time>
      </trkpt>
      <trkpt lat="48.19796" lon="3.23228">
        <ele>146.7</ele>
        <time>2020-02-08T10:42:28Z</time>
      </trkpt>
      <trkpt lat="48.19792" lon="3.23213">
        <ele>146.6</ele>
        <time>2020-02-08T10:42:33Z</time>
      </trkpt>
      <trkpt lat="48.19791" lon="3.23205">
        <ele>146.8</ele>
        <time>2020-02-08T10:42:41Z</time>
      </trkpt>
      <trkpt lat="48.1979" lon="3.23206">
        <ele>146.6</ele>
        <time>2020-02-08T10:42:48Z</time>
      </trkpt>
      <trkpt lat="48.19792" lon="3.23216">
        <ele>146.4</ele>
        <time>2020-02-08T10:43:08Z</time>
      </trkpt>
      <trkpt lat="48.19791" lon="3.23215">
        <ele>146.3</ele>
        <time>2020-02-08T10:43:16Z</time>
      </trkpt>
      <trkpt lat="48.19789" lon="3.23212">
        <ele>146</ele>
        <time>2020-02-08T10:43:21Z</time>
      </trkpt>
      <trkpt lat="48.19787" lon="3.23211">
        <ele>145.7</ele>
        <time>2020-02-08T10:43:24Z</time>
      </trkpt>
      <trkpt lat="48.19787" lon="3.23211">
        <ele>145.7</ele>
        <time>2020-02-08T10:43:30Z</time>
      </trkpt>
      <trkpt lat="48.19786" lon="3.23208">
        <ele>145.6</ele>
        <time>2020-02-08T10:43:35Z</time>
      </trkpt>
      <trkpt lat="48.19775" lon="3.23215">
        <ele>142.8</ele>
        <time>2020-02-08T10:43:42Z</time>
      </trkpt>
      <trkpt lat="48.19771" lon="3.23218">
        <ele>141.6</ele>
        <time>2020-02-08T10:43:44Z</time>
      </trkpt>
      <trkpt lat="48.19759" lon="3.23223">
        <ele>138.2</ele>
        <time>2020-02-08T10:43:49Z</time>
      </trkpt>
      <trkpt lat="48.1975" lon="3.23224">
        <ele>135.9</ele>
        <time>2020-02-08T10:43:52Z</time>
      </trkpt>
      <trkpt lat="48.19737" lon="3.23229">
        <ele>132.1</ele>
        <time>2020-02-08T10:43:55Z</time>
      </trkpt>
      <trkpt lat="48.19721" lon="3.23234">
        <ele>127.5</ele>
        <time>2020-02-08T10:43:59Z</time>
      </trkpt>
      <trkpt lat="48.19709" lon="3.2324">
        <ele>124.4</ele>
        <time>2020-02-08T10:44:03Z</time>
      </trkpt>
      <trkpt lat="48.19692" lon="3.23248">
        <ele>120.8</ele>
        <time>2020-02-08T10:44:08Z</time>
      </trkpt>
      <trkpt lat="48.19685" lon="3.23249">
        <ele>120</ele>
        <time>2020-02-08T10:44:10Z</time>
      </trkpt>
      <trkpt lat="48.19675" lon="3.23255">
        <ele>118.7</ele>
        <time>2020-02-08T10:44:12Z</time>
      </trkpt>
      <trkpt lat="48.19669" lon="3.23268">
        <ele>117.5</ele>
        <time>2020-02-08T10:44:14Z</time>
      </trkpt>
      <trkpt lat="48.19663" lon="3.23279">
        <ele>117</ele>
        <time>2020-02-08T10:44:16Z</time>
      </trkpt>
      <trkpt lat="48.19661" lon="3.2329">
        <ele>116.6</ele>
        <time>2020-02-08T10:44:18Z</time>
      </trkpt>
      <trkpt lat="48.19661" lon="3.23296">
        <ele>116.3</ele>
        <time>2020-02-08T10:44:19Z</time>
      </trkpt>
      <trkpt lat="48.19662" lon="3.23301">
        <ele>116.2</ele>
        <time>2020-02-08T10:44:20Z</time>
      </trkpt>
      <trkpt lat="48.19662" lon="3.23305">
        <ele>116</ele>
        <time>2020-02-08T10:44:21Z</time>
      </trkpt>
      <trkpt lat="48.19662" lon="3.2331">
        <ele>116</ele>
        <time>2020-02-08T10:44:22Z</time>
      </trkpt>
      <trkpt lat="48.19663" lon="3.23313">
        <ele>116</ele>
        <time>2020-02-08T10:44:23Z</time>
      </trkpt>
      <trkpt lat="48.19663" lon="3.23317">
        <ele>116.1</ele>
        <time>2020-02-08T10:44:24Z</time>
      </trkpt>
      <trkpt lat="48.19664" lon="3.23321">
        <ele>116.1</ele>
        <time>2020-02-08T10:44:25Z</time>
      </trkpt>
      <trkpt lat="48.19664" lon="3.23325">
        <ele>116.1</ele>
        <time>2020-02-08T10:44:26Z</time>
      </trkpt>
      <trkpt lat="48.1967" lon="3.23364">
        <ele>116</ele>
        <time>2020-02-08T10:44:36Z</time>
      </trkpt>
      <trkpt lat="48.19676" lon="3.23396">
        <ele>115.7</ele>
        <time>2020-02-08T10:44:44Z</time>
      </trkpt>
      <trkpt lat="48.19681" lon="3.23433">
        <ele>115.2</ele>
        <time>2020-02-08T10:44:53Z</time>
      </trkpt>
      <trkpt lat="48.19684" lon="3.2346">
        <ele>114.8</ele>
        <time>2020-02-08T10:45:00Z</time>
      </trkpt>
      <trkpt lat="48.19687" lon="3.2349">
        <ele>114.5</ele>
        <time>2020-02-08T10:45:08Z</time>
      </trkpt>
      <trkpt lat="48.1969" lon="3.23521">
        <ele>114.2</ele>
        <time>2020-02-08T10:45:16Z</time>
      </trkpt>
      <trkpt lat="48.19694" lon="3.23555">
        <ele>113.1</ele>
        <time>2020-02-08T10:45:25Z</time>
      </trkpt>
      <trkpt lat="48.19696" lon="3.23574">
        <ele>113</ele>
        <time>2020-02-08T10:45:30Z</time>
      </trkpt>
      <trkpt lat="48.197" lon="3.23604">
        <ele>112.8</ele>
        <time>2020-02-08T10:45:38Z</time>
      </trkpt>
      <trkpt lat="48.197" lon="3.23608">
        <ele>112.8</ele>
        <time>2020-02-08T10:45:39Z</time>
      </trkpt>
      <trkpt lat="48.197" lon="3.23611">
        <ele>112.8</ele>
        <time>2020-02-08T10:45:40Z</time>
      </trkpt>
      <trkpt lat="48.19701" lon="3.23615">
        <ele>112.8</ele>
        <time>2020-02-08T10:45:41Z</time>
      </trkpt>
      <trkpt lat="48.19701" lon="3.23618">
        <ele>112.8</ele>
        <time>2020-02-08T10:45:42Z</time>
      </trkpt>
      <trkpt lat="48.19702" lon="3.23621">
        <ele>112.7</ele>
        <time>2020-02-08T10:45:43Z</time>
      </trkpt>
      <trkpt lat="48.19706" lon="3.23647">
        <ele>112.4</ele>
        <time>2020-02-08T10:45:51Z</time>
      </trkpt>
      <trkpt lat="48.19709" lon="3.23669">
        <ele>112</ele>
        <time>2020-02-08T10:45:58Z</time>
      </trkpt>
      <trkpt lat="48.19711" lon="3.23693">
        <ele>111.4</ele>
        <time>2020-02-08T10:46:06Z</time>
      </trkpt>
      <trkpt lat="48.19715" lon="3.23726">
        <ele>111.3</ele>
        <time>2020-02-08T10:46:16Z</time>
      </trkpt>
      <trkpt lat="48.19715" lon="3.23746">
        <ele>111.3</ele>
        <time>2020-02-08T10:46:22Z</time>
      </trkpt>
      <trkpt lat="48.19716" lon="3.23749">
        <ele>111.2</ele>
        <time>2020-02-08T10:46:23Z</time>
      </trkpt>
      <trkpt lat="48.19716" lon="3.23752">
        <ele>111.2</ele>
        <time>2020-02-08T10:46:24Z</time>
      </trkpt>
      <trkpt lat="48.19716" lon="3.23755">
        <ele>111.2</ele>
        <time>2020-02-08T10:46:25Z</time>
      </trkpt>
      <trkpt lat="48.19715" lon="3.23759">
        <ele>111.3</ele>
        <time>2020-02-08T10:46:26Z</time>
      </trkpt>
      <trkpt lat="48.19714" lon="3.23762">
        <ele>111.3</ele>
        <time>2020-02-08T10:46:27Z</time>
      </trkpt>
      <trkpt lat="48.19713" lon="3.23765">
        <ele>111.3</ele>
        <time>2020-02-08T10:46:28Z</time>
      </trkpt>
      <trkpt lat="48.19712" lon="3.23767">
        <ele>111.4</ele>
        <time>2020-02-08T10:46:29Z</time>
      </trkpt>
      <trkpt lat="48.19711" lon="3.23769">
        <ele>111.4</ele>
        <time>2020-02-08T10:46:30Z</time>
      </trkpt>
      <trkpt lat="48.19707" lon="3.23772">
        <ele>111.5</ele>
        <time>2020-02-08T10:46:32Z</time>
      </trkpt>
      <trkpt lat="48.19699" lon="3.2378">
        <ele>111.8</ele>
        <time>2020-02-08T10:46:37Z</time>
      </trkpt>
      <trkpt lat="48.19698" lon="3.23804">
        <ele>111.9</ele>
        <time>2020-02-08T10:46:43Z</time>
      </trkpt>
      <trkpt lat="48.19701" lon="3.2384">
        <ele>111.5</ele>
        <time>2020-02-08T10:46:49Z</time>
      </trkpt>
      <trkpt lat="48.19705" lon="3.23901">
        <ele>111.1</ele>
        <time>2020-02-08T10:46:57Z</time>
      </trkpt>
      <trkpt lat="48.19716" lon="3.2396">
        <ele>109.7</ele>
        <time>2020-02-08T10:47:04Z</time>
      </trkpt>
      <trkpt lat="48.19729" lon="3.24031">
        <ele>108.8</ele>
        <time>2020-02-08T10:47:12Z</time>
      </trkpt>
      <trkpt lat="48.19731" lon="3.24039">
        <ele>108.7</ele>
        <time>2020-02-08T10:47:13Z</time>
      </trkpt>
      <trkpt lat="48.19733" lon="3.24047">
        <ele>108.6</ele>
        <time>2020-02-08T10:47:14Z</time>
      </trkpt>
      <trkpt lat="48.19735" lon="3.24055">
        <ele>108.5</ele>
        <time>2020-02-08T10:47:15Z</time>
      </trkpt>
      <trkpt lat="48.19736" lon="3.24064">
        <ele>108.4</ele>
        <time>2020-02-08T10:47:16Z</time>
      </trkpt>
      <trkpt lat="48.19737" lon="3.24072">
        <ele>108.2</ele>
        <time>2020-02-08T10:47:17Z</time>
      </trkpt>
      <trkpt lat="48.19753" lon="3.24154">
        <ele>107</ele>
        <time>2020-02-08T10:47:26Z</time>
      </trkpt>
      <trkpt lat="48.19774" lon="3.24242">
        <ele>106.1</ele>
        <time>2020-02-08T10:47:36Z</time>
      </trkpt>
      <trkpt lat="48.19793" lon="3.24322">
        <ele>105.5</ele>
        <time>2020-02-08T10:47:45Z</time>
      </trkpt>
      <trkpt lat="48.19813" lon="3.24402">
        <ele>105.1</ele>
        <time>2020-02-08T10:47:54Z</time>
      </trkpt>
      <trkpt lat="48.19826" lon="3.24458">
        <ele>104.4</ele>
        <time>2020-02-08T10:48:01Z</time>
      </trkpt>
      <trkpt lat="48.19856" lon="3.24551">
        <ele>103.2</ele>
        <time>2020-02-08T10:48:10Z</time>
        <extensions>
          <visugpx:TrkExtension xmlns:visugpx="https://www.visugpx.com/editgpx/">
            <visugpx:node>1</visugpx:node>
            </visugpx:TrkExtension>
        </extensions>
      </trkpt>
    </trkseg>
  </trk>
</gpx>